Time;durP1;ratioP1;P1;durP2;ratioP2;P2;SDS_P1;SDS_P2;PMS_P1;PMS_P2;Temp;Humidity;BMP_temperature;BMP_pressure;BME280_temperature;BME280_humidity;BME280_pressure;Samples;Min_cycle;Max_cycle;Signal;HPM_P1;HPM_P2
2020/12/28 02:14:44;;;;;;;11.97;11.57;;;6.80;99.90;;;;;;5270369;23;20507;-79
2020/12/28 02:17:10;;;;;;;14.43;13.93;;;6.80;99.90;;;;;;4934472;29;20456;-78
2020/12/28 02:19:36;;;;;;;15.17;14.67;;;6.70;99.90;;;;;;4940898;29;20456;-80
2020/12/28 02:22:03;;;;;;;18.30;17.70;;;6.70;99.90;;;;;;4942438;29;20467;-79
2020/12/28 02:24:29;;;;;;;18.83;18.23;;;6.60;99.90;;;;;;4935000;29;20492;-75
2020/12/28 02:26:56;;;;;;;18.17;17.57;;;6.50;99.90;;;;;;4936139;29;20968;-76
2020/12/28 02:29:22;;;;;;;18.50;17.90;;;6.40;99.90;;;;;;4935881;29;20950;-77
2020/12/28 02:31:48;;;;;;;18.00;17.40;;;6.40;99.90;;;;;;4935957;29;20455;-75
2020/12/28 02:34:14;;;;;;;18.77;18.17;;;6.30;99.90;;;;;;4935741;29;20457;-76
2020/12/28 02:36:40;;;;;;;18.23;17.63;;;6.30;99.90;;;;;;4935479;29;20527;-75
2020/12/28 02:39:07;;;;;;;18.07;17.47;;;6.20;99.90;;;;;;4935221;29;20456;-76
2020/12/28 02:41:33;;;;;;;18.00;17.40;;;6.20;99.90;;;;;;4934306;29;20512;-77
2020/12/28 02:43:59;;;;;;;17.57;17.00;;;6.20;99.90;;;;;;4934158;29;20481;-85
2020/12/28 02:46:26;;;;;;;17.17;16.47;;;6.10;99.90;;;;;;4934050;29;20497;-84
2020/12/28 02:48:52;;;;;;;17.80;17.10;;;6.10;99.90;;;;;;4934171;29;20954;-85
2020/12/28 02:51:18;;;;;;;17.63;17.03;;;6.10;99.90;;;;;;4934158;29;20553;-81
2020/12/28 02:53:44;;;;;;;16.93;16.33;;;6.10;99.90;;;;;;4934013;29;20458;-81
2020/12/28 02:56:11;;;;;;;17.93;17.33;;;6.10;99.90;;;;;;4934120;29;20443;-81
2020/12/28 02:58:37;;;;;;;16.40;15.90;;;6.10;99.90;;;;;;4933865;29;20458;-84
2020/12/28 03:01:04;;;;;;;16.50;16.00;;;6.00;99.90;;;;;;4934203;29;20463;-86
2020/12/28 03:03:30;;;;;;;17.10;16.50;;;6.00;99.90;;;;;;4931675;29;20494;-85
2020/12/28 03:05:56;;;;;;;16.20;15.70;;;6.00;99.90;;;;;;4934161;29;20454;-85
2020/12/28 03:08:22;;;;;;;15.90;15.17;;;6.00;99.90;;;;;;4934165;29;20448;-84
2020/12/28 03:10:48;;;;;;;15.53;15.03;;;6.00;99.90;;;;;;4933939;29;20858;-84
2020/12/28 03:13:16;;;;;;;15.77;15.27;;;6.00;99.90;;;;;;4933647;29;20475;-85
2020/12/28 03:15:42;;;;;;;15.50;15.00;;;5.90;99.90;;;;;;4933902;29;20462;-85
2020/12/28 03:18:08;;;;;;;15.40;14.90;;;6.00;99.90;;;;;;4933813;29;20517;-83
2020/12/28 03:20:34;;;;;;;15.70;15.20;;;6.00;99.90;;;;;;4933833;29;20457;-83
2020/12/28 03:23:00;;;;;;;15.40;14.80;;;5.90;99.90;;;;;;4934058;29;20978;-83
2020/12/28 03:25:26;;;;;;;15.13;14.63;;;5.90;99.90;;;;;;4933746;29;20546;-82
2020/12/28 03:27:53;;;;;;;15.60;15.10;;;5.90;99.90;;;;;;4933641;29;20507;-81
2020/12/28 03:30:20;;;;;;;15.60;15.10;;;6.00;99.90;;;;;;4933197;29;20971;-80
2020/12/28 03:32:46;;;;;;;14.87;14.47;;;5.90;99.90;;;;;;4933496;29;20529;-82
2020/12/28 03:35:12;;;;;;;14.60;14.20;;;6.00;99.90;;;;;;4933364;29;20448;-79
2020/12/28 03:37:38;;;;;;;13.93;13.53;;;6.00;99.90;;;;;;4933576;29;20444;-79
2020/12/28 03:40:05;;;;;;;14.07;13.57;;;6.00;99.90;;;;;;4933129;29;20455;-77
2020/12/28 03:42:31;;;;;;;13.77;13.13;;;6.00;99.90;;;;;;4931113;29;20453;-78
2020/12/28 03:44:57;;;;;;;14.57;14.13;;;6.00;99.90;;;;;;4932955;29;20492;-77
2020/12/28 03:47:24;;;;;;;14.80;14.30;;;6.00;99.90;;;;;;4933244;29;20864;-78
2020/12/28 03:49:51;;;;;;;13.77;13.17;;;6.00;99.90;;;;;;4931259;29;20449;-79
2020/12/28 03:52:17;;;;;;;14.60;14.10;;;6.00;99.90;;;;;;4934606;29;20852;-81
2020/12/28 03:54:46;;;;;;;15.30;14.80;;;6.00;99.90;;;;;;4934443;29;20454;-79
2020/12/28 03:57:12;;;;;;;13.80;13.30;;;5.90;99.90;;;;;;4934597;29;20480;-80
2020/12/28 03:59:38;;;;;;;15.80;15.30;;;5.90;99.90;;;;;;4934354;29;20464;-80
2020/12/28 04:02:04;;;;;;;16.30;15.80;;;5.80;99.90;;;;;;4934113;29;20462;-81
2020/12/28 04:04:31;;;;;;;16.30;15.80;;;5.70;99.90;;;;;;4934181;29;20498;-82
2020/12/28 04:06:57;;;;;;;15.20;14.70;;;5.70;99.90;;;;;;4934171;29;20464;-82
2020/12/28 04:09:24;;;;;;;15.70;15.20;;;5.60;99.90;;;;;;4934476;29;20510;-82
2020/12/28 04:11:50;;;;;;;15.60;15.00;;;5.60;99.90;;;;;;4933957;29;20523;-81
2020/12/28 04:14:16;;;;;;;14.70;14.30;;;5.60;99.90;;;;;;4933757;29;20482;-83
2020/12/28 04:16:42;;;;;;;15.20;14.70;;;5.60;99.90;;;;;;4934223;29;20456;-82
2020/12/28 04:19:08;;;;;;;13.70;13.07;;;5.50;99.90;;;;;;4934405;29;20454;-83
2020/12/28 04:21:35;;;;;;;14.63;14.17;;;5.50;99.90;;;;;;4933869;29;20465;-82
2020/12/28 04:24:01;;;;;;;14.50;14.00;;;5.40;99.90;;;;;;4934254;29;20485;-82
2020/12/28 04:26:27;;;;;;;13.93;13.53;;;5.30;99.90;;;;;;4933771;29;20464;-80
2020/12/28 04:28:54;;;;;;;14.10;13.60;;;5.20;99.90;;;;;;4934059;29;20465;-80
2020/12/28 04:31:20;;;;;;;13.93;13.43;;;5.20;99.90;;;;;;4934023;29;20454;-80
2020/12/28 04:33:46;;;;;;;13.63;13.23;;;5.20;99.90;;;;;;4933896;29;20649;-79
2020/12/28 04:36:12;;;;;;;13.27;12.87;;;5.20;99.90;;;;;;4934320;29;20805;-80
2020/12/28 04:38:40;;;;;;;13.40;13.00;;;5.20;99.90;;;;;;4941513;29;20467;-80
2020/12/28 04:41:06;;;;;;;13.57;12.93;;;5.20;99.90;;;;;;4948443;29;20464;-83
2020/12/28 04:43:32;;;;;;;13.23;12.83;;;5.30;99.90;;;;;;4934506;29;20457;-83
2020/12/28 04:46:02;;;;;;;12.30;11.90;;;5.20;99.90;;;;;;4933805;29;20466;-84
2020/12/28 04:48:32;;;;;;;12.50;12.00;;;5.20;99.90;;;;;;4933623;29;20449;-83
2020/12/28 04:50:59;;;;;;;11.10;10.70;;;5.20;99.90;;;;;;4933701;29;20492;-85
2020/12/28 04:53:28;;;;;;;11.77;11.27;;;5.10;99.90;;;;;;4933612;29;20955;-84
2020/12/28 04:55:55;;;;;;;12.00;11.60;;;5.00;99.90;;;;;;4933825;29;20484;-85
2020/12/28 04:58:21;;;;;;;12.20;11.70;;;5.00;99.90;;;;;;4937286;29;20454;-87
2020/12/28 05:00:47;;;;;;;11.47;10.77;;;5.00;99.90;;;;;;4935298;29;20463;-89
2020/12/28 05:08:24;;;;;;;10.97;10.57;;;5.00;99.90;;;;;;5419060;23;21044;-85
2020/12/28 05:10:51;;;;;;;10.57;10.20;;;5.00;99.90;;;;;;4933532;29;20454;-84
2020/12/28 05:13:22;;;;;;;11.07;10.70;;;5.00;99.90;;;;;;4933450;29;20475;-85
2020/12/28 05:19:25;;;;;;;10.70;10.20;;;5.00;99.90;;;;;;4800348;29;20462;-87
2020/12/28 05:22:47;;;;;;;;;;;;;;;;;;;;;
2020/12/28 05:25:27;;;;;;;10.50;10.20;;;5.10;99.90;;;;;;4933827;29;20996;-87
2020/12/28 05:28:05;;;;;;;;;;;;;;;;;;;;;
2020/12/28 05:37:15;;;;;;;13.30;12.80;;;5.10;99.90;;;;;;4919922;29;20893;-83
2020/12/28 05:40:13;;;;;;;12.87;12.37;;;5.10;99.90;;;;;;4935869;29;20460;-90
2020/12/28 06:05:05;;;;;;;11.97;11.40;;;5.60;99.90;;;;;;5937629;23;20430;-85
2020/12/28 06:08:17;;;;;;;;;;;;;;;;;;;;;
2020/12/28 06:10:54;;;;;;;;;;;;;;;;;;;;;
2020/12/28 06:13:22;;;;;;;12.50;12.10;;;5.60;99.90;;;;;;4939178;29;20469;-86
2020/12/28 06:15:58;;;;;;;13.37;12.97;;;5.60;99.90;;;;;;4936171;29;20474;-82
2020/12/28 06:18:26;;;;;;;13.67;13.27;;;5.60;99.90;;;;;;4936192;29;20453;-85
2020/12/28 06:20:52;;;;;;;13.17;12.67;;;5.60;99.90;;;;;;4936319;29;20462;-86
2020/12/28 06:23:25;;;;;;;12.40;12.00;;;5.60;99.90;;;;;;4936284;29;20439;-84
2020/12/28 06:25:55;;;;;;;14.03;13.47;;;5.60;99.90;;;;;;4936067;29;20479;-85
2020/12/28 06:28:25;;;;;;;14.87;14.27;;;5.60;99.90;;;;;;4936226;29;20823;-85
2020/12/28 06:30:52;;;;;;;15.20;14.70;;;5.60;99.90;;;;;;4936216;29;20466;-84
2020/12/28 06:33:18;;;;;;;14.97;14.40;;;5.60;99.90;;;;;;4935783;29;20940;-87
2020/12/28 06:35:45;;;;;;;15.47;14.97;;;5.60;99.90;;;;;;4935856;29;20692;-82
2020/12/28 06:38:12;;;;;;;14.63;14.13;;;5.60;99.90;;;;;;4935393;29;20531;-81
2020/12/28 06:40:39;;;;;;;14.90;14.40;;;5.60;99.90;;;;;;4935895;29;20460;-80
2020/12/28 06:43:08;;;;;;;15.07;14.57;;;5.60;99.90;;;;;;4935757;29;20853;-79
2020/12/28 06:45:35;;;;;;;16.00;15.50;;;5.60;99.90;;;;;;4935542;29;20502;-78
2020/12/28 06:48:01;;;;;;;16.30;15.77;;;5.60;99.90;;;;;;4935854;29;20489;-78
2020/12/28 06:50:28;;;;;;;16.77;16.27;;;5.60;99.90;;;;;;4944405;29;20495;-81
2020/12/28 06:52:54;;;;;;;16.80;16.20;;;5.60;99.90;;;;;;4949734;29;20458;-79
2020/12/28 06:55:23;;;;;;;17.20;16.70;;;5.60;99.90;;;;;;4939344;29;20454;-74
2020/12/28 06:57:49;;;;;;;17.10;16.50;;;5.70;99.90;;;;;;4933854;29;21023;-74
2020/12/28 07:00:20;;;;;;;17.20;16.60;;;5.70;99.90;;;;;;4933766;29;21030;-76
2020/12/28 07:02:51;;;;;;;15.40;14.90;;;5.70;99.90;;;;;;4935416;29;20459;-76
2020/12/28 07:05:22;;;;;;;18.53;17.90;;;5.70;99.90;;;;;;4934167;29;20505;-77
2020/12/28 07:07:49;;;;;;;19.40;18.10;;;5.60;99.90;;;;;;4933815;29;20538;-75
2020/12/28 07:10:16;;;;;;;17.80;17.20;;;5.60;99.90;;;;;;4933966;29;20449;-76
2020/12/28 07:12:43;;;;;;;18.87;18.17;;;5.50;99.90;;;;;;4931173;29;20472;-77
2020/12/28 07:15:09;;;;;;;18.90;18.10;;;5.40;99.90;;;;;;4934075;29;20535;-78
2020/12/28 07:17:36;;;;;;;20.07;19.27;;;5.40;99.90;;;;;;4934073;29;20802;-78
2020/12/28 07:20:05;;;;;;;19.87;19.07;;;5.40;99.90;;;;;;4933841;29;20464;-77
2020/12/28 07:22:35;;;;;;;18.17;17.57;;;5.40;99.90;;;;;;4933985;29;20447;-76
2020/12/28 07:25:02;;;;;;;19.93;19.13;;;5.40;99.90;;;;;;4933719;29;20569;-77
2020/12/28 07:27:28;;;;;;;20.13;19.30;;;5.40;99.90;;;;;;4933703;29;20455;-77
2020/12/28 07:29:54;;;;;;;19.10;18.40;;;5.40;99.90;;;;;;4933699;29;20472;-77
2020/12/28 07:32:20;;;;;;;19.03;18.13;;;5.30;99.90;;;;;;4933703;29;20449;-76
2020/12/28 07:34:53;;;;;;;18.80;18.20;;;5.30;99.90;;;;;;4933537;29;20478;-77
2020/12/28 07:37:19;;;;;;;18.67;18.00;;;5.40;99.90;;;;;;4933325;29;20454;-76
2020/12/28 07:39:48;;;;;;;18.60;18.00;;;5.30;99.90;;;;;;4934014;29;20456;-79
2020/12/28 07:42:18;;;;;;;18.60;17.90;;;5.30;99.90;;;;;;4933982;29;20554;-73
2020/12/28 07:44:51;;;;;;;19.10;18.40;;;5.40;99.90;;;;;;4933775;29;21061;-73
2020/12/28 07:47:21;;;;;;;19.60;18.90;;;5.40;99.90;;;;;;4934346;29;20456;-73
2020/12/28 07:49:50;;;;;;;19.67;18.97;;;5.40;99.90;;;;;;4933943;29;20951;-81
2020/12/28 07:52:22;;;;;;;19.67;18.97;;;5.40;99.90;;;;;;4933723;29;20555;-80
2020/12/28 07:54:58;;;;;;;19.77;18.87;;;5.40;99.90;;;;;;4932832;29;20533;-81
2020/12/28 07:57:32;;;;;;;19.67;18.93;;;5.30;99.90;;;;;;4933519;29;20456;-82
2020/12/28 08:00:05;;;;;;;19.10;18.50;;;5.30;99.90;;;;;;4933155;29;20511;-80
2020/12/28 08:02:44;;;;;;;17.13;16.53;;;5.40;99.90;;;;;;4932947;29;20583;-79
2020/12/28 08:05:11;;;;;;;17.53;16.80;;;5.40;99.90;;;;;;4932908;29;20497;-80
2020/12/28 08:07:38;;;;;;;18.07;17.47;;;5.30;99.90;;;;;;4933350;29;20525;-80
2020/12/28 08:10:08;;;;;;;18.00;17.30;;;5.40;99.90;;;;;;4933446;29;20450;-79
2020/12/28 08:12:37;;;;;;;17.07;16.57;;;5.40;99.90;;;;;;4933156;29;20819;-81
2020/12/28 08:15:03;;;;;;;17.50;16.80;;;5.40;99.90;;;;;;4933059;29;20459;-81
2020/12/28 08:17:29;;;;;;;17.87;17.20;;;5.40;99.90;;;;;;4928200;29;20543;-80
2020/12/28 08:20:08;;;;;;;17.53;16.90;;;5.40;99.90;;;;;;4924006;29;20442;-80
2020/12/28 08:22:34;;;;;;;20.40;19.07;;;5.50;99.90;;;;;;4924102;29;20460;-80
2020/12/28 08:25:03;;;;;;;18.53;17.93;;;5.60;99.90;;;;;;4914310;29;20604;-79
2020/12/28 08:27:30;;;;;;;18.33;17.73;;;5.60;99.90;;;;;;4928933;29;20481;-79
2020/12/28 08:29:57;;;;;;;18.20;17.50;;;5.60;99.90;;;;;;4933160;29;20457;-78
2020/12/28 08:32:27;;;;;;;17.57;17.00;;;5.70;99.90;;;;;;4933276;29;20454;-79
2020/12/28 08:34:55;;;;;;;16.87;16.37;;;5.80;99.90;;;;;;4927478;29;20449;-78
2020/12/28 08:37:21;;;;;;;17.73;17.13;;;5.80;99.90;;;;;;4914570;29;20454;-79
2020/12/28 08:39:47;;;;;;;16.80;16.30;;;5.80;99.90;;;;;;4913895;29;20516;-79
2020/12/28 08:42:24;;;;;;;17.47;16.87;;;5.90;99.90;;;;;;4914090;29;20524;-79
2020/12/28 08:44:51;;;;;;;17.60;17.00;;;5.90;99.90;;;;;;4914283;29;20495;-79
2020/12/28 08:47:17;;;;;;;17.60;17.00;;;6.00;99.90;;;;;;4913931;29;20459;-79
2020/12/28 08:49:47;;;;;;;19.20;18.50;;;6.00;99.90;;;;;;4914151;29;20464;-79
2020/12/28 08:52:14;;;;;;;18.73;18.13;;;6.00;99.90;;;;;;4921524;29;20456;-79
2020/12/28 08:54:41;;;;;;;17.73;17.23;;;6.00;99.90;;;;;;4932866;29;20487;-79
2020/12/28 08:57:19;;;;;;;16.60;16.10;;;6.10;99.90;;;;;;4933036;29;20464;-79
2020/12/28 08:59:45;;;;;;;17.10;15.30;;;6.00;99.90;;;;;;4932993;29;20658;-78
2020/12/28 09:02:16;;;;;;;14.23;13.73;;;5.90;99.90;;;;;;4932883;29;21020;-77
2020/12/28 09:04:42;;;;;;;15.77;15.07;;;6.00;99.90;;;;;;4939477;29;20503;-78
2020/12/28 09:07:08;;;;;;;15.70;15.20;;;5.90;99.90;;;;;;4944861;29;20464;-79
2020/12/28 09:09:35;;;;;;;17.30;16.60;;;5.90;99.90;;;;;;4934031;29;20850;-79
2020/12/28 09:12:01;;;;;;;17.10;16.50;;;5.80;99.90;;;;;;4932753;29;20982;-78
2020/12/28 09:14:28;;;;;;;16.73;16.13;;;5.80;99.90;;;;;;4932768;29;20462;-79
2020/12/28 09:16:54;;;;;;;16.97;16.37;;;5.80;99.90;;;;;;4932920;29;20446;-77
2020/12/28 09:19:20;;;;;;;17.30;16.70;;;5.80;99.90;;;;;;4932864;29;20815;-79
2020/12/28 09:21:46;;;;;;;17.13;16.60;;;5.80;99.90;;;;;;4932593;29;20460;-77
2020/12/28 09:24:12;;;;;;;17.20;16.60;;;5.90;99.90;;;;;;4932442;29;20502;-78
2020/12/28 09:26:39;;;;;;;18.17;17.57;;;5.80;99.90;;;;;;4932830;29;20464;-77
2020/12/28 09:29:05;;;;;;;18.63;17.47;;;5.80;99.90;;;;;;4934698;29;20819;-77
2020/12/28 09:31:32;;;;;;;16.97;16.37;;;5.90;99.90;;;;;;4936548;29;20471;-77
2020/12/28 09:33:58;;;;;;;16.27;15.67;;;5.90;99.90;;;;;;4936345;29;20474;-76
2020/12/28 09:36:24;;;;;;;17.00;16.40;;;5.90;99.90;;;;;;4936510;29;20515;-77
2020/12/28 09:38:50;;;;;;;16.37;15.67;;;5.80;99.90;;;;;;4936481;29;20463;-75
2020/12/28 09:41:17;;;;;;;16.43;15.93;;;5.80;99.90;;;;;;4936147;29;20509;-78
2020/12/28 09:43:44;;;;;;;16.47;15.90;;;5.90;99.90;;;;;;4934606;29;20455;-78
2020/12/28 09:46:10;;;;;;;17.20;16.50;;;5.90;99.90;;;;;;4936441;29;20553;-78
2020/12/28 09:48:38;;;;;;;16.27;15.67;;;5.90;99.90;;;;;;4936038;29;20469;-75
2020/12/28 09:51:04;;;;;;;17.40;16.50;;;5.90;99.90;;;;;;4935757;29;20453;-76
2020/12/28 09:53:31;;;;;;;14.97;14.47;;;6.00;99.90;;;;;;4935603;29;20948;-78
2020/12/28 09:55:57;;;;;;;16.30;15.70;;;6.00;99.90;;;;;;4934381;29;20457;-79
2020/12/28 09:58:23;;;;;;;14.97;14.47;;;6.10;99.90;;;;;;4936230;29;20467;-80
2020/12/28 10:00:49;;;;;;;14.07;13.40;;;6.10;99.90;;;;;;4936116;29;20463;-80
2020/12/28 10:03:16;;;;;;;12.43;12.03;;;6.10;99.90;;;;;;4936205;29;20457;-80
2020/12/28 10:05:43;;;;;;;12.00;11.60;;;6.10;99.90;;;;;;4935545;29;20903;-82
2020/12/28 10:08:09;;;;;;;13.83;13.33;;;6.10;99.90;;;;;;4936355;29;20457;-83
2020/12/28 10:10:36;;;;;;;13.30;12.70;;;6.20;99.90;;;;;;4936769;29;20448;-85
2020/12/28 10:13:02;;;;;;;13.07;12.57;;;6.20;99.90;;;;;;4935723;29;20477;-84
2020/12/28 10:15:28;;;;;;;12.87;12.30;;;6.20;99.90;;;;;;4936135;29;20452;-84
2020/12/28 10:18:12;;;;;;;13.23;12.00;;;6.30;99.90;;;;;;4936037;29;20464;-84
2020/12/28 10:20:39;;;;;;;11.50;11.03;;;6.20;99.90;;;;;;4936097;29;20450;-83
2020/12/28 10:23:06;;;;;;;11.60;11.10;;;6.20;99.90;;;;;;4935951;29;20457;-84
2020/12/28 10:25:32;;;;;;;11.87;11.27;;;6.20;99.90;;;;;;4942371;29;20487;-85
2020/12/28 10:28:01;;;;;;;12.23;11.60;;;6.20;99.90;;;;;;4934001;29;20456;-84
2020/12/28 10:30:27;;;;;;;10.93;10.30;;;6.30;99.90;;;;;;4936048;29;20463;-85
2020/12/28 10:32:54;;;;;;;11.17;10.63;;;6.30;99.90;;;;;;4935959;29;20469;-86
2020/12/28 10:35:20;;;;;;;11.70;11.10;;;6.30;99.90;;;;;;4935727;29;21064;-85
2020/12/28 10:37:46;;;;;;;11.00;10.53;;;6.20;99.90;;;;;;4935459;29;20454;-85
2020/12/28 10:40:13;;;;;;;11.07;10.67;;;6.30;99.90;;;;;;4934462;29;20463;-84
2020/12/28 10:42:39;;;;;;;11.33;10.83;;;6.30;99.90;;;;;;4935482;29;20465;-83
2020/12/28 10:45:06;;;;;;;12.67;12.07;;;6.30;99.90;;;;;;4935673;29;20866;-83
2020/12/28 10:47:32;;;;;;;10.97;10.57;;;6.20;99.90;;;;;;4935419;29;20449;-85
2020/12/28 10:49:58;;;;;;;9.80;9.40;;;6.30;99.90;;;;;;4935466;29;20474;-82
2020/12/28 10:52:24;;;;;;;10.50;10.10;;;6.20;99.90;;;;;;4935044;29;20467;-75
2020/12/28 10:54:50;;;;;;;11.03;10.53;;;6.20;99.90;;;;;;4935904;29;20449;-85
2020/12/28 10:57:17;;;;;;;10.63;10.23;;;6.20;99.90;;;;;;4935607;29;20528;-86
2020/12/28 10:59:44;;;;;;;11.23;10.77;;;6.20;99.90;;;;;;4935721;29;20513;-85
2020/12/28 11:02:10;;;;;;;10.87;10.03;;;6.30;99.90;;;;;;4936821;29;20473;-84
2020/12/28 11:04:36;;;;;;;15.10;13.77;;;6.20;99.90;;;;;;4936541;29;20507;-85
2020/12/28 11:07:03;;;;;;;10.07;9.57;;;6.30;99.90;;;;;;4943560;29;20465;-86
2020/12/28 11:09:34;;;;;;;11.57;11.00;;;6.30;99.90;;;;;;4941495;29;20970;-86
2020/12/28 11:12:07;;;;;;;10.87;10.37;;;6.40;99.90;;;;;;4935671;29;20496;-85
2020/12/28 11:14:38;;;;;;;11.67;11.07;;;6.40;99.90;;;;;;4934187;29;20449;-84
2020/12/28 11:17:04;;;;;;;11.60;11.10;;;6.50;99.90;;;;;;4935415;29;21027;-81
2020/12/28 11:19:30;;;;;;;12.60;11.90;;;6.60;99.90;;;;;;4944397;29;20473;-80
2020/12/28 11:21:56;;;;;;;13.23;12.43;;;6.60;99.90;;;;;;4941476;29;20472;-79
2020/12/28 11:24:23;;;;;;;10.80;10.30;;;6.50;99.90;;;;;;4936750;29;20481;-80
2020/12/28 11:26:49;;;;;;;11.57;10.97;;;6.50;99.90;;;;;;4935938;29;20461;-79
2020/12/28 11:29:15;;;;;;;11.47;10.97;;;6.50;99.90;;;;;;4936080;29;20462;-79
2020/12/28 11:31:42;;;;;;;11.70;11.10;;;6.60;99.90;;;;;;4935624;29;20461;-81
2020/12/28 11:34:08;;;;;;;9.97;9.57;;;6.70;99.90;;;;;;4935758;29;20460;-80
2020/12/28 11:36:34;;;;;;;9.80;9.40;;;6.60;99.90;;;;;;4935441;29;20850;-81
2020/12/28 11:39:00;;;;;;;10.97;10.47;;;6.70;99.90;;;;;;4934868;29;20467;-81
2020/12/28 11:41:27;;;;;;;11.53;10.97;;;6.60;99.90;;;;;;4934719;29;20912;-82
2020/12/28 11:43:53;;;;;;;10.50;9.90;;;6.60;99.90;;;;;;4935149;29;20457;-81
2020/12/28 11:46:19;;;;;;;12.27;11.20;;;6.60;99.90;;;;;;4935006;29;20489;-82
2020/12/28 11:48:46;;;;;;;11.43;10.80;;;6.60;99.90;;;;;;4934552;29;20457;-82
2020/12/28 11:51:13;;;;;;;11.87;11.37;;;6.70;99.90;;;;;;4934552;29;20480;-84
2020/12/28 11:53:39;;;;;;;11.70;10.90;;;6.70;99.90;;;;;;4934985;29;20472;-84
2020/12/28 11:56:11;;;;;;;11.40;10.70;;;6.60;99.90;;;;;;4934770;29;20458;-84
2020/12/28 11:58:39;;;;;;;11.20;10.70;;;6.70;99.90;;;;;;4934749;29;20464;-84
2020/12/28 12:01:11;;;;;;;12.20;11.60;;;6.70;99.90;;;;;;4934427;29;20469;-85
2020/12/28 12:03:37;;;;;;;11.63;11.13;;;6.60;99.90;;;;;;4934425;29;20559;-85
2020/12/28 12:06:04;;;;;;;12.67;11.87;;;6.60;99.90;;;;;;4933954;29;20504;-84
2020/12/28 12:08:31;;;;;;;13.57;12.77;;;6.70;99.90;;;;;;4934202;29;20454;-84
2020/12/28 12:10:57;;;;;;;12.57;11.83;;;6.80;99.90;;;;;;4934054;29;20840;-84
2020/12/28 12:13:24;;;;;;;13.70;13.00;;;6.90;99.90;;;;;;4933863;29;21012;-84
2020/12/28 12:15:52;;;;;;;13.20;12.50;;;7.00;99.90;;;;;;4934582;29;20450;-84
2020/12/28 12:18:18;;;;;;;15.10;14.13;;;6.90;99.90;;;;;;4938127;29;20825;-83
2020/12/28 12:20:44;;;;;;;15.90;14.90;;;6.80;99.90;;;;;;4934196;29;20881;-83
2020/12/28 12:23:11;;;;;;;13.53;12.83;;;6.80;99.90;;;;;;4933999;29;20467;-84
2020/12/28 12:25:37;;;;;;;13.80;13.10;;;6.90;99.90;;;;;;4934053;29;20853;-84
2020/12/28 12:28:03;;;;;;;14.00;13.03;;;6.90;99.90;;;;;;4933952;29;20947;-83
2020/12/28 12:30:30;;;;;;;12.90;12.20;;;6.90;99.90;;;;;;4933980;29;20449;-85
2020/12/28 12:32:58;;;;;;;14.30;13.30;;;6.80;99.90;;;;;;4934070;29;20967;-85
2020/12/28 12:35:25;;;;;;;15.70;14.80;;;6.80;99.90;;;;;;4933808;29;20454;-84
2020/12/28 12:37:51;;;;;;;14.73;13.90;;;6.70;99.90;;;;;;4933847;29;20509;-84
2020/12/28 12:40:18;;;;;;;15.40;14.37;;;6.70;99.90;;;;;;4933736;29;20467;-83
2020/12/28 12:42:44;;;;;;;16.27;15.23;;;6.80;99.90;;;;;;4933537;29;21003;-83
2020/12/28 12:45:10;;;;;;;16.23;15.00;;;6.70;99.90;;;;;;4933692;29;20829;-82
2020/12/28 12:47:36;;;;;;;15.10;14.10;;;6.80;99.90;;;;;;4933826;29;20516;-81
2020/12/28 12:50:04;;;;;;;16.37;15.33;;;6.80;99.90;;;;;;4933638;29;20475;-87
2020/12/28 12:52:30;;;;;;;16.53;15.63;;;6.80;99.90;;;;;;4940130;28;20704;-84
2020/12/28 12:54:56;;;;;;;22.13;20.87;;;6.60;99.90;;;;;;4933758;29;20463;-80
2020/12/28 12:57:23;;;;;;;22.67;21.53;;;6.60;99.90;;;;;;4934109;29;20963;-79
2020/12/28 13:00:03;;;;;;;21.80;20.80;;;6.50;99.90;;;;;;4933753;29;20455;-80
2020/12/28 13:02:30;;;;;;;24.40;23.00;;;6.40;99.90;;;;;;4937303;28;20477;-84
2020/12/28 13:04:59;;;;;;;25.03;23.43;;;6.40;99.90;;;;;;4950282;29;20485;-88
2020/12/28 13:07:26;;;;;;;22.87;21.40;;;6.40;99.90;;;;;;4934853;29;20473;-86
2020/12/28 13:09:52;;;;;;;22.13;20.93;;;6.30;99.90;;;;;;4935163;29;20478;-87
2020/12/28 13:12:18;;;;;;;21.83;20.40;;;6.30;99.90;;;;;;4933682;29;20495;-86
2020/12/28 13:14:47;;;;;;;19.47;18.47;;;6.40;99.90;;;;;;4933399;29;20457;-81
2020/12/28 13:17:14;;;;;;;19.60;18.50;;;6.40;99.90;;;;;;4933537;29;20464;-81
2020/12/28 13:19:41;;;;;;;14.63;14.00;;;6.30;99.90;;;;;;4949933;29;20454;-83
2020/12/28 13:22:07;;;;;;;14.63;13.93;;;6.30;99.90;;;;;;4952732;29;20879;-84
2020/12/28 13:24:33;;;;;;;13.70;13.00;;;6.30;99.90;;;;;;4952574;29;20518;-83
2020/12/28 13:26:59;;;;;;;12.27;11.70;;;6.20;99.90;;;;;;4952583;29;20670;-82
2020/12/28 13:29:26;;;;;;;12.07;11.63;;;6.30;99.90;;;;;;4952660;29;20467;-82
2020/12/28 13:31:53;;;;;;;11.40;10.87;;;6.30;99.90;;;;;;4953089;29;20949;-82
2020/12/28 13:34:19;;;;;;;11.20;10.70;;;6.30;99.90;;;;;;4958932;29;20487;-80
2020/12/28 13:36:46;;;;;;;11.00;10.50;;;6.30;99.90;;;;;;4933954;28;20487;-80
2020/12/28 13:39:12;;;;;;;10.57;10.07;;;6.30;99.90;;;;;;4925914;29;20512;-81
2020/12/28 13:41:38;;;;;;;10.00;9.50;;;6.40;99.90;;;;;;4915465;29;20461;-81
2020/12/28 13:44:04;;;;;;;9.50;9.20;;;6.30;99.90;;;;;;4914906;29;20943;-81
2020/12/28 13:46:30;;;;;;;9.50;9.20;;;6.50;99.90;;;;;;4914027;29;20564;-81
2020/12/28 13:48:57;;;;;;;9.57;9.27;;;6.40;99.90;;;;;;4917807;29;20543;-79
2020/12/28 13:51:25;;;;;;;8.60;8.40;;;6.40;99.90;;;;;;4930613;29;20457;-77
2020/12/28 13:53:51;;;;;;;8.37;8.07;;;6.40;99.90;;;;;;4914119;29;20520;-76
2020/12/28 13:56:18;;;;;;;9.10;8.80;;;6.50;99.90;;;;;;4930031;29;20480;-77
2020/12/28 13:58:45;;;;;;;9.50;9.20;;;6.40;99.90;;;;;;4932856;29;20453;-78
2020/12/28 14:01:11;;;;;;;9.73;9.33;;;6.40;99.90;;;;;;4932935;29;20472;-79
2020/12/28 14:03:38;;;;;;;8.87;8.50;;;6.50;99.90;;;;;;4933031;29;20586;-80
2020/12/28 14:06:07;;;;;;;9.53;9.10;;;6.60;99.90;;;;;;4932724;29;20508;-80
2020/12/28 14:08:34;;;;;;;9.20;8.90;;;6.70;99.90;;;;;;4932119;29;20456;-79
2020/12/28 14:11:00;;;;;;;9.00;8.70;;;6.70;99.90;;;;;;4932756;29;20448;-79
2020/12/28 14:13:27;;;;;;;9.20;8.90;;;6.60;99.90;;;;;;4932563;29;20477;-80
2020/12/28 14:15:53;;;;;;;8.83;8.53;;;6.60;99.90;;;;;;4936122;29;20465;-81
2020/12/28 14:18:19;;;;;;;8.40;8.20;;;6.60;99.90;;;;;;4936119;29;20460;-80
2020/12/28 14:20:45;;;;;;;8.83;8.50;;;6.60;99.90;;;;;;4935814;29;20467;-80
2020/12/28 14:23:12;;;;;;;8.73;8.33;;;6.70;99.90;;;;;;4936075;29;20460;-80
2020/12/28 14:25:38;;;;;;;8.10;7.80;;;6.70;99.90;;;;;;4935975;29;20524;-80
2020/12/28 14:28:04;;;;;;;8.70;8.40;;;6.60;99.90;;;;;;4936020;29;20453;-80
2020/12/28 14:30:30;;;;;;;8.17;7.87;;;6.50;99.90;;;;;;4935676;29;20524;-80
2020/12/28 14:32:57;;;;;;;9.27;8.87;;;6.50;99.90;;;;;;4935705;29;20464;-81
2020/12/28 14:35:23;;;;;;;8.07;7.87;;;6.30;99.90;;;;;;4935854;29;20474;-81
2020/12/28 14:37:49;;;;;;;8.10;7.90;;;6.40;99.90;;;;;;4935957;29;20503;-79
2020/12/28 14:40:16;;;;;;;8.03;7.73;;;6.40;99.90;;;;;;4936026;29;20453;-80
2020/12/28 14:42:42;;;;;;;7.97;7.57;;;6.40;99.90;;;;;;4935510;29;20464;-80
2020/12/28 14:45:09;;;;;;;9.10;8.80;;;6.40;99.90;;;;;;4935758;29;20580;-81
2020/12/28 14:47:35;;;;;;;8.23;7.93;;;6.40;99.90;;;;;;4935567;29;20467;-81
2020/12/28 14:50:01;;;;;;;7.83;7.53;;;6.30;99.90;;;;;;4935532;29;20522;-82
2020/12/28 14:52:28;;;;;;;7.83;7.63;;;6.20;99.90;;;;;;4935458;29;20460;-81
2020/12/28 14:54:54;;;;;;;8.20;7.90;;;6.20;99.90;;;;;;4935793;29;20453;-81
2020/12/28 14:57:21;;;;;;;8.50;8.07;;;6.10;99.90;;;;;;4935903;29;20774;-82
2020/12/28 14:59:47;;;;;;;9.00;8.70;;;6.10;99.90;;;;;;4935217;29;20456;-82
2020/12/28 15:02:14;;;;;;;8.00;7.80;;;6.10;99.90;;;;;;4935061;29;20468;-82
2020/12/28 15:04:41;;;;;;;8.77;8.47;;;6.10;99.90;;;;;;4935014;29;21006;-81
2020/12/28 15:07:10;;;;;;;8.37;8.10;;;6.00;99.90;;;;;;4935508;29;20917;-81
2020/12/28 15:09:36;;;;;;;8.63;8.43;;;6.00;99.90;;;;;;4934779;29;20545;-83
2020/12/28 15:12:02;;;;;;;9.03;8.73;;;6.00;99.90;;;;;;4935037;29;20454;-82
2020/12/28 15:14:29;;;;;;;9.50;9.20;;;6.00;99.90;;;;;;4935128;29;20449;-81
2020/12/28 15:16:55;;;;;;;9.50;9.20;;;6.10;99.90;;;;;;4935183;29;20960;-83
2020/12/28 15:19:22;;;;;;;9.20;8.90;;;6.00;99.90;;;;;;4935260;29;20511;-81
2020/12/28 15:21:48;;;;;;;9.17;8.87;;;6.00;99.90;;;;;;4935019;29;20880;-83
2020/12/28 15:24:14;;;;;;;9.50;9.20;;;5.90;99.90;;;;;;4935304;29;20465;-83
2020/12/28 15:26:41;;;;;;;9.40;9.10;;;5.90;99.90;;;;;;4935885;29;20586;-84
2020/12/28 15:29:07;;;;;;;9.30;9.00;;;5.80;99.90;;;;;;4935702;29;20492;-83
2020/12/28 15:31:34;;;;;;;9.20;8.73;;;5.90;99.90;;;;;;4934933;29;20519;-85
2020/12/28 15:34:00;;;;;;;8.80;8.40;;;5.90;99.90;;;;;;4935986;29;20469;-85
2020/12/28 15:36:26;;;;;;;8.90;8.60;;;5.80;99.90;;;;;;4936609;29;20508;-86
2020/12/28 15:38:53;;;;;;;9.27;8.87;;;5.90;99.90;;;;;;4935734;29;20461;-86